Time;durP1;ratioP1;P1;durP2;ratioP2;P2;SDS_P1;SDS_P2;PMS_P1;PMS_P2;Temp;Humidity;BMP_temperature;BMP_pressure;BME280_temperature;BME280_humidity;BME280_pressure;Samples;Min_cycle;Max_cycle;Signal;HPM_P1;HPM_P2
2021/12/24 00:00:37;;;;;;;67.28;32.25;;;7.10;99.90;;;;;;4995389;28;20400;-92
2021/12/24 00:03:03;;;;;;;60.83;31.42;;;7.10;99.90;;;;;;4993595;28;20160;-91
2021/12/24 00:05:30;;;;;;;62.00;30.70;;;7.10;99.90;;;;;;4994967;28;20053;-91
2021/12/24 00:07:56;;;;;;;56.35;28.23;;;7.10;99.90;;;;;;5011358;28;20041;-91
2021/12/24 00:10:21;;;;;;;58.13;30.45;;;7.20;99.90;;;;;;5011069;28;20091;-92
2021/12/24 00:12:56;;;;;;;61.05;31.77;;;7.20;99.90;;;;;;5010837;28;20089;-91
2021/12/24 00:37:04;;;;;;;60.45;29.55;;;7.40;99.90;;;;;;5009919;28;20053;-91
2021/12/24 00:39:30;;;;;;;64.10;32.15;;;7.40;99.90;;;;;;4993616;28;20507;-91
2021/12/24 00:41:56;;;;;;;63.80;31.23;;;7.40;99.90;;;;;;5010513;28;20128;-91
2021/12/24 00:44:22;;;;;;;63.38;30.58;;;7.40;99.90;;;;;;4993189;28;20859;-91
2021/12/24 00:46:47;;;;;;;58.97;30.58;;;7.50;99.90;;;;;;5010509;28;20042;-91
2021/12/24 00:49:13;;;;;;;53.33;28.48;;;7.50;99.90;;;;;;4993871;28;20042;-91
2021/12/24 00:56:57;;;;;;;46.22;26.60;;;7.60;99.90;;;;;;5009955;28;20133;-91
2021/12/24 00:59:23;;;;;;;56.42;28.70;;;7.60;99.90;;;;;;4993187;28;20479;-91
2021/12/24 01:01:48;;;;;;;54.67;29.95;;;7.70;99.90;;;;;;4993867;28;20411;-91
2021/12/24 01:04:14;;;;;;;46.08;25.65;;;7.70;99.90;;;;;;4993845;28;20041;-91
2021/12/24 01:06:40;;;;;;;54.58;26.88;;;7.70;99.90;;;;;;5010075;28;20088;-91
2021/12/24 01:09:05;;;;;;;44.67;25.27;;;7.70;99.90;;;;;;5010321;28;20044;-91
2021/12/24 01:11:31;;;;;;;48.88;26.85;;;7.70;99.90;;;;;;4993514;28;20041;-92
2021/12/24 01:14:00;;;;;;;50.08;26.10;;;7.70;99.90;;;;;;4993113;28;20057;-91
2021/12/24 01:16:51;;;;;;;50.38;26.58;;;7.80;99.90;;;;;;5009542;28;20513;-92
2021/12/24 01:19:22;;;;;;;43.20;25.85;;;7.80;99.90;;;;;;4993185;28;20065;-92
2021/12/24 01:24:20;;;;;;;41.75;24.60;;;7.80;99.90;;;;;;5009481;28;20184;-92
2021/12/24 01:27:01;;;;;;;;;;;7.90;99.90;;;;;;4993789;28;20560;-92
2021/12/24 01:40:27;;;;;;;35.17;20.02;;;7.90;99.90;;;;;;5009412;28;20041;-92
2021/12/24 01:42:54;;;;;;;32.75;21.00;;;7.90;99.90;;;;;;4993025;28;20030;-92
2021/12/24 01:45:23;;;;;;;34.20;19.88;;;8.00;99.90;;;;;;4992893;28;20044;-91
2021/12/24 01:47:51;;;;;;;37.30;22.25;;;8.00;99.90;;;;;;5010017;28;20108;-92
2021/12/24 01:50:18;;;;;;;35.92;22.27;;;8.00;99.90;;;;;;5009264;28;20042;-93
2021/12/24 01:52:44;;;;;;;38.03;22.55;;;8.10;99.90;;;;;;5012680;28;20541;-92
2021/12/24 01:55:11;;;;;;;32.17;19.30;;;8.00;99.90;;;;;;4997142;28;20034;-92
2021/12/24 01:57:38;;;;;;;35.15;20.48;;;8.00;99.90;;;;;;4996570;28;20041;-92
2021/12/24 02:00:09;;;;;;;29.15;20.33;;;8.10;99.90;;;;;;4997213;28;20049;-92
2021/12/24 02:02:34;;;;;;;26.77;17.48;;;8.10;99.90;;;;;;5012913;28;20525;-92
2021/12/24 02:05:00;;;;;;;30.52;19.40;;;8.20;99.90;;;;;;5011600;28;20041;-92
2021/12/24 02:07:26;;;;;;;28.13;17.95;;;8.20;99.90;;;;;;5013494;28;20037;-92
2021/12/24 02:09:54;;;;;;;26.80;16.67;;;8.20;99.90;;;;;;4997581;28;20049;-92
2021/12/24 02:12:22;;;;;;;25.80;16.35;;;8.20;99.90;;;;;;4996487;28;20495;-92
2021/12/24 02:14:51;;;;;;;25.92;16.42;;;8.30;99.90;;;;;;4996418;28;20042;-92
2021/12/24 02:17:49;;;;;;;23.77;15.77;;;8.30;99.90;;;;;;4996419;28;20042;-93
2021/12/24 02:28:39;;;;;;;21.70;13.63;;;8.40;99.90;;;;;;5013269;28;20041;-92
2021/12/24 02:31:15;;;;;;;20.85;13.88;;;8.40;99.90;;;;;;5012982;28;20077;-93
2021/12/24 02:33:42;;;;;;;22.88;14.32;;;8.50;99.90;;;;;;5012406;28;20038;-92
2021/12/24 02:36:08;;;;;;;22.27;14.82;;;8.50;99.90;;;;;;5012539;28;20046;-92
2021/12/24 02:38:34;;;;;;;22.40;14.65;;;8.50;99.90;;;;;;5013072;28;20041;-91
2021/12/24 02:41:00;;;;;;;21.75;15.13;;;8.50;99.90;;;;;;4996621;28;20088;-92
2021/12/24 02:43:26;;;;;;;25.33;17.83;;;8.60;99.90;;;;;;5012036;28;20042;-91
2021/12/24 02:45:56;;;;;;;25.73;16.77;;;8.60;99.90;;;;;;4995803;28;20384;-92
2021/12/24 02:53:57;;;;;;;21.92;14.43;;;8.60;99.90;;;;;;5012322;28;20052;-92
2021/12/24 02:56:29;;;;;;;18.48;12.52;;;8.60;99.90;;;;;;5006775;28;20033;-91
2021/12/24 02:58:56;;;;;;;20.05;13.55;;;8.60;99.90;;;;;;5010034;28;20041;-92
2021/12/24 03:01:26;;;;;;;19.60;13.45;;;8.60;99.90;;;;;;5011542;28;20042;-92
2021/12/24 03:03:52;;;;;;;20.25;13.77;;;8.60;99.90;;;;;;5012966;28;20037;-91
2021/12/24 03:06:24;;;;;;;18.60;12.15;;;8.70;99.90;;;;;;5008346;28;20044;-91
2021/12/24 03:08:50;;;;;;;20.25;12.73;;;8.70;99.90;;;;;;5013573;28;20141;-91
2021/12/24 03:11:16;;;;;;;20.30;12.60;;;8.70;99.90;;;;;;5012271;28;20069;-91
2021/12/24 03:13:42;;;;;;;19.52;13.32;;;8.70;99.90;;;;;;5011808;28;20107;-92
2021/12/24 03:16:09;;;;;;;20.33;13.13;;;8.70;99.90;;;;;;5011693;28;20042;-92
2021/12/24 03:18:37;;;;;;;19.00;12.70;;;8.80;99.90;;;;;;4995921;28;20484;-92
2021/12/24 03:21:08;;;;;;;20.42;13.88;;;8.80;99.90;;;;;;4994081;28;20069;-91
2021/12/24 03:26:01;;;;;;;18.08;12.05;;;8.80;99.90;;;;;;5010743;28;20108;-91
2021/12/24 03:28:26;;;;;;;16.23;10.73;;;8.80;99.90;;;;;;4994770;28;20124;-91
2021/12/24 03:30:52;;;;;;;19.92;12.20;;;8.80;99.90;;;;;;5013112;28;20116;-91
2021/12/24 03:33:18;;;;;;;18.73;12.05;;;8.80;99.90;;;;;;5011499;28;20407;-92
2021/12/24 03:35:43;;;;;;;17.15;11.93;;;8.90;99.90;;;;;;5011641;28;20558;-92
2021/12/24 03:38:09;;;;;;;15.27;10.48;;;8.90;99.90;;;;;;5011078;28;20120;-91
2021/12/24 03:40:35;;;;;;;16.13;11.25;;;8.90;99.90;;;;;;5011709;28;20088;-92
2021/12/24 03:43:00;;;;;;;17.00;11.18;;;8.90;99.90;;;;;;4994679;28;20491;-91
2021/12/24 03:45:37;;;;;;;17.85;10.98;;;8.90;99.90;;;;;;5011089;28;20046;-91
2021/12/24 03:48:14;;;;;;;15.57;10.55;;;9.00;99.90;;;;;;4994489;28;20156;-91
2021/12/24 03:51:07;;;;;;;17.33;11.15;;;9.00;99.90;;;;;;4994806;28;20050;-91
2021/12/24 03:56:10;;;;;;;14.80;9.65;;;9.00;99.90;;;;;;5011078;28;20046;-91
2021/12/24 03:58:35;;;;;;;15.88;9.95;;;9.00;99.90;;;;;;4994932;28;20042;-92
2021/12/24 04:01:01;;;;;;;14.68;9.73;;;9.00;99.90;;;;;;4994687;28;20132;-92
2021/12/24 04:03:27;;;;;;;16.38;11.13;;;9.10;99.90;;;;;;5009866;28;20034;-92
2021/12/24 04:05:52;;;;;;;15.10;10.48;;;9.10;99.90;;;;;;4994447;28;20038;-92
2021/12/24 04:08:18;;;;;;;16.30;11.18;;;9.10;99.90;;;;;;4994673;28;20135;-92
2021/12/24 04:10:44;;;;;;;18.45;12.65;;;9.10;99.90;;;;;;5011089;28;20046;-91
2021/12/24 04:13:11;;;;;;;21.55;13.23;;;9.20;99.90;;;;;;5011177;28;20487;-91
2021/12/24 04:15:38;;;;;;;22.38;14.43;;;9.20;99.90;;;;;;5011079;28;20041;-91
2021/12/24 04:18:13;;;;;;;25.05;15.25;;;9.20;99.90;;;;;;5010187;28;20120;-90
2021/12/24 04:26:07;;;;;;;27.55;17.60;;;9.30;99.90;;;;;;5010603;28;20038;-91
2021/12/24 04:28:33;;;;;;;29.67;18.40;;;9.30;99.90;;;;;;4994202;28;20518;-91
2021/12/24 04:31:00;;;;;;;27.45;16.98;;;9.30;99.90;;;;;;5010915;28;20549;-91
2021/12/24 04:33:36;;;;;;;26.65;17.17;;;9.30;99.90;;;;;;5010258;28;20046;-91
2021/12/24 04:39:22;;;;;;;25.17;17.10;;;9.30;99.90;;;;;;5010906;28;20041;-92
2021/12/24 05:03:08;;;;;;;31.30;18.98;;;9.30;99.90;;;;;;5008774;28;20049;-91
2021/12/24 05:05:47;;;;;;;31.13;18.92;;;9.30;99.90;;;;;;5010186;28;20422;-91
2021/12/24 05:08:18;;;;;;;33.17;19.40;;;9.30;99.90;;;;;;5011251;28;20117;-91
2021/12/24 05:10:44;;;;;;;33.78;20.55;;;9.30;99.90;;;;;;4993240;28;20037;-92
2021/12/24 05:13:12;;;;;;;32.00;19.27;;;9.30;99.90;;;;;;4993429;28;20099;-91
2021/12/24 05:15:40;;;;;;;35.55;21.00;;;9.30;99.90;;;;;;4991504;28;20053;-91
2021/12/24 05:23:24;;;;;;;30.02;18.10;;;9.30;99.90;;;;;;5008815;28;20042;-92
2021/12/24 05:25:51;;;;;;;34.60;20.95;;;9.30;99.90;;;;;;5009785;28;20045;-92
2021/12/24 05:28:18;;;;;;;35.72;20.65;;;9.30;99.90;;;;;;4996741;28;20045;-92
2021/12/24 05:30:44;;;;;;;34.35;21.90;;;9.30;99.90;;;;;;5015089;28;20049;-92
2021/12/24 05:33:15;;;;;;;36.42;20.52;;;9.30;99.90;;;;;;5013416;28;20037;-92
2021/12/24 05:35:41;;;;;;;41.15;20.67;;;9.30;99.90;;;;;;4997431;28;20042;-92
2021/12/24 05:38:07;;;;;;;39.17;21.48;;;9.20;99.90;;;;;;4997122;28;20538;-90
2021/12/24 05:40:33;;;;;;;36.47;22.58;;;9.20;99.90;;;;;;4997341;28;20065;-91
2021/12/24 05:42:59;;;;;;;36.20;22.02;;;9.20;99.90;;;;;;4997051;28;20109;-91
2021/12/24 05:45:25;;;;;;;31.50;20.55;;;9.20;99.90;;;;;;4997210;28;20059;-91
2021/12/24 05:47:51;;;;;;;31.05;18.77;;;9.20;99.90;;;;;;4996783;28;20569;-91
2021/12/24 05:50:17;;;;;;;33.20;20.55;;;9.30;99.90;;;;;;5013339;28;20446;-91
2021/12/24 05:52:43;;;;;;;33.97;19.55;;;9.30;99.90;;;;;;5013949;28;20483;-92
2021/12/24 05:55:09;;;;;;;35.45;22.33;;;9.30;99.90;;;;;;5013637;28;20041;-92
2021/12/24 05:57:36;;;;;;;38.58;21.98;;;9.20;99.90;;;;;;5013400;28;20042;-91
2021/12/24 06:00:10;;;;;;;35.08;20.95;;;9.30;99.90;;;;;;5014749;28;20115;-92
2021/12/24 06:02:36;;;;;;;37.88;21.92;;;9.30;99.90;;;;;;4996806;28;20069;-92
2021/12/24 06:05:01;;;;;;;34.70;20.10;;;9.20;99.90;;;;;;4995319;28;20074;-93
2021/12/24 06:07:27;;;;;;;37.90;21.50;;;9.20;99.90;;;;;;4997347;28;20161;-92
2021/12/24 06:09:53;;;;;;;37.38;21.02;;;9.30;99.90;;;;;;4996480;28;20526;-92
2021/12/24 06:12:18;;;;;;;32.42;20.48;;;9.30;99.90;;;;;;5013208;28;20041;-92
2021/12/24 06:14:46;;;;;;;31.92;19.02;;;9.30;99.90;;;;;;4996517;28;20519;-92
2021/12/24 06:17:17;;;;;;;30.98;18.70;;;9.30;99.90;;;;;;5012329;28;20049;-91
2021/12/24 06:19:43;;;;;;;27.08;17.10;;;9.20;99.90;;;;;;5013081;28;20050;-92
2021/12/24 06:22:09;;;;;;;32.28;18.23;;;9.20;99.90;;;;;;4995091;28;20751;-92
2021/12/24 06:24:36;;;;;;;32.35;17.85;;;9.30;99.90;;;;;;5012622;28;20372;-92
2021/12/24 06:27:03;;;;;;;34.83;19.92;;;9.30;99.90;;;;;;5012876;28;20041;-92
2021/12/24 06:29:29;;;;;;;32.15;17.40;;;9.30;99.90;;;;;;5012636;28;20046;-92
2021/12/24 06:31:55;;;;;;;30.33;18.48;;;9.30;99.90;;;;;;4996034;28;20124;-92
2021/12/24 06:34:21;;;;;;;28.38;17.27;;;9.30;99.90;;;;;;4996189;28;20148;-92
2021/12/24 06:36:48;;;;;;;29.63;17.38;;;9.30;99.90;;;;;;5012651;28;20188;-92
2021/12/24 06:39:15;;;;;;;33.95;17.60;;;9.30;99.90;;;;;;4994521;28;20515;-90
2021/12/24 06:41:42;;;;;;;30.15;17.25;;;9.30;99.90;;;;;;5012371;28;20080;-92
2021/12/24 06:44:11;;;;;;;36.72;17.00;;;9.30;99.90;;;;;;5012386;28;20076;-92
2021/12/24 06:46:37;;;;;;;30.38;17.13;;;9.20;99.90;;;;;;4995883;28;20042;-91
2021/12/24 06:49:03;;;;;;;28.13;15.98;;;9.30;99.90;;;;;;4995658;28;20041;-91
2021/12/24 06:51:29;;;;;;;29.15;14.98;;;9.20;99.90;;;;;;5013171;28;20038;-91
2021/12/24 06:53:55;;;;;;;27.73;15.45;;;9.20;99.90;;;;;;4995974;28;20033;-91
2021/12/24 06:56:21;;;;;;;33.97;16.20;;;9.20;99.90;;;;;;5014338;28;20088;-91
2021/12/24 06:58:47;;;;;;;31.02;14.02;;;9.20;99.90;;;;;;5005099;28;20447;-91
2021/12/24 07:01:12;;;;;;;31.30;14.45;;;9.20;99.90;;;;;;4995787;28;20046;-90
2021/12/24 07:03:38;;;;;;;26.80;13.65;;;9.20;99.90;;;;;;4994462;28;20034;-91
2021/12/24 07:06:04;;;;;;;29.73;15.40;;;9.20;99.90;;;;;;5012076;28;20076;-91
2021/12/24 07:08:31;;;;;;;27.77;14.05;;;9.20;99.90;;;;;;5012796;28;20132;-91
2021/12/24 07:10:56;;;;;;;27.73;13.65;;;9.20;99.90;;;;;;5011811;28;20045;-91
2021/12/24 07:13:22;;;;;;;23.13;12.13;;;9.20;99.90;;;;;;5011635;28;20034;-91
2021/12/24 07:15:48;;;;;;;22.48;11.73;;;9.20;99.90;;;;;;5011803;28;20126;-91
2021/12/24 07:18:14;;;;;;;26.67;13.30;;;9.20;99.90;;;;;;4995094;28;20041;-90
2021/12/24 07:20:39;;;;;;;23.80;12.95;;;9.10;99.90;;;;;;4995431;28;20045;-91
2021/12/24 07:23:05;;;;;;;20.80;11.57;;;9.10;99.90;;;;;;4994946;28;20514;-91
2021/12/24 07:25:31;;;;;;;28.67;13.10;;;9.10;99.90;;;;;;5011704;28;20030;-91
2021/12/24 07:27:57;;;;;;;22.77;12.18;;;9.10;99.90;;;;;;4995471;28;20551;-91
2021/12/24 07:30:22;;;;;;;22.35;11.05;;;9.10;99.90;;;;;;5011326;28;20077;-91
2021/12/24 07:32:49;;;;;;;26.40;11.88;;;9.00;99.90;;;;;;5011400;28;20129;-91
2021/12/24 07:35:16;;;;;;;23.15;11.50;;;9.00;99.90;;;;;;5011379;28;20128;-91
2021/12/24 07:37:42;;;;;;;19.30;9.35;;;9.00;99.90;;;;;;4995248;28;20030;-91
2021/12/24 07:40:10;;;;;;;22.00;9.50;;;9.00;99.90;;;;;;5011254;28;20074;-91
2021/12/24 07:42:37;;;;;;;23.65;9.63;;;9.10;99.90;;;;;;5011159;28;20038;-91
2021/12/24 07:45:05;;;;;;;20.15;9.35;;;9.10;99.90;;;;;;5010426;28;20030;-90
2021/12/24 07:47:32;;;;;;;22.38;10.18;;;9.00;99.90;;;;;;5011382;28;20038;-90
2021/12/24 07:50:05;;;;;;;18.98;9.60;;;9.00;99.90;;;;;;4994218;28;20050;-91
2021/12/24 07:52:31;;;;;;;30.48;9.98;;;9.00;99.90;;;;;;5010972;28;20049;-91
2021/12/24 07:54:57;;;;;;;24.98;10.85;;;9.00;99.90;;;;;;4994128;28;20081;-91
2021/12/24 07:57:24;;;;;;;23.05;10.05;;;9.00;99.90;;;;;;4994670;28;20088;-90
2021/12/24 07:59:50;;;;;;;26.17;9.75;;;9.00;99.90;;;;;;4994540;28;20038;-91
2021/12/24 08:02:22;;;;;;;21.75;9.90;;;9.00;99.90;;;;;;5011417;28;20085;-91
2021/12/24 08:04:47;;;;;;;23.20;10.50;;;8.90;99.90;;;;;;5009208;28;20044;-90
2021/12/24 08:07:15;;;;;;;26.95;9.70;;;8.90;99.90;;;;;;5011022;28;20086;-91
2021/12/24 08:09:41;;;;;;;24.75;9.55;;;8.90;99.90;;;;;;5028597;28;20048;-91
2021/12/24 08:12:09;;;;;;;21.63;9.10;;;8.90;99.90;;;;;;5029722;28;20594;-92
2021/12/24 08:14:36;;;;;;;20.48;8.68;;;8.90;99.90;;;;;;5025880;28;20101;-91
2021/12/24 08:17:02;;;;;;;20.90;9.48;;;8.90;99.90;;;;;;5029867;28;20053;-90
2021/12/24 08:19:29;;;;;;;27.13;9.80;;;8.90;99.90;;;;;;5004557;28;20052;-90
2021/12/24 08:21:56;;;;;;;25.58;8.93;;;8.90;99.90;;;;;;4995578;28;20519;-91
2021/12/24 08:24:21;;;;;;;22.63;9.75;;;8.90;99.90;;;;;;5027256;28;20038;-90
2021/12/24 08:26:47;;;;;;;25.88;10.13;;;8.90;99.90;;;;;;5027446;28;20046;-91
2021/12/24 08:29:13;;;;;;;26.65;9.93;;;8.90;99.90;;;;;;4992769;28;20551;-91
2021/12/24 08:31:39;;;;;;;28.05;9.68;;;8.90;99.90;;;;;;4994107;28;20072;-90
2021/12/24 08:34:05;;;;;;;24.88;9.60;;;8.90;99.90;;;;;;4993622;28;20088;-91
2021/12/24 08:36:31;;;;;;;25.60;10.75;;;8.90;99.90;;;;;;4992616;28;20124;-91
2021/12/24 08:38:57;;;;;;;26.17;10.20;;;8.90;99.90;;;;;;4994044;28;20042;-91
2021/12/24 08:41:24;;;;;;;24.27;11.07;;;8.90;99.90;;;;;;5009578;28;20049;-91
2021/12/24 08:43:50;;;;;;;29.23;10.85;;;8.90;99.90;;;;;;4992427;28;20388;-91
2021/12/24 08:46:15;;;;;;;23.90;9.80;;;8.90;99.90;;;;;;5010132;28;20037;-91
2021/12/24 08:48:41;;;;;;;25.65;10.02;;;8.90;99.90;;;;;;5010617;28;20092;-91
2021/12/24 08:51:07;;;;;;;18.02;8.52;;;8.90;99.90;;;;;;4993887;28;20708;-91
2021/12/24 08:53:33;;;;;;;22.23;9.02;;;8.90;99.90;;;;;;5011235;28;20030;-91
2021/12/24 08:55:58;;;;;;;18.17;7.63;;;8.90;99.90;;;;;;5010250;28;20053;-91
2021/12/24 08:58:24;;;;;;;20.33;7.57;;;9.00;99.90;;;;;;4994058;28;20060;-91
2021/12/24 09:00:50;;;;;;;19.58;7.90;;;9.00;99.90;;;;;;4993678;28;20042;-91
2021/12/24 09:03:16;;;;;;;19.17;7.75;;;9.00;99.90;;;;;;4992768;28;20052;-91
2021/12/24 09:05:42;;;;;;;19.48;7.95;;;9.10;99.90;;;;;;5009381;28;20050;-91
2021/12/24 09:08:07;;;;;;;20.75;9.13;;;9.10;99.90;;;;;;4993947;28;20088;-91
2021/12/24 09:10:34;;;;;;;23.17;9.43;;;9.10;99.90;;;;;;5009546;28;20049;-91
2021/12/24 09:13:00;;;;;;;24.25;8.90;;;9.00;99.90;;;;;;5009785;28;20049;-90
2021/12/24 09:15:30;;;;;;;23.90;10.00;;;9.00;99.90;;;;;;5009103;28;20046;-91
2021/12/24 09:17:57;;;;;;;27.13;8.35;;;9.00;99.90;;;;;;4993746;28;20087;-91
2021/12/24 09:20:29;;;;;;;24.13;7.93;;;9.00;99.90;;;;;;4993754;28;20042;-91
2021/12/24 09:22:58;;;;;;;22.30;8.40;;;8.90;99.90;;;;;;4995120;28;20246;-91
2021/12/24 09:25:24;;;;;;;25.25;9.07;;;9.00;99.90;;;;;;5013382;28;20531;-90
2021/12/24 09:27:51;;;;;;;26.00;7.93;;;8.90;99.90;;;;;;5005024;28;20049;-91
2021/12/24 09:30:17;;;;;;;26.67;8.10;;;8.90;99.90;;;;;;4990912;28;20042;-91
2021/12/24 09:32:42;;;;;;;26.63;8.80;;;8.90;99.90;;;;;;4982241;28;20052;-91
2021/12/24 09:35:10;;;;;;;18.65;7.55;;;8.90;99.90;;;;;;4993313;28;20046;-91
2021/12/24 09:37:36;;;;;;;25.48;7.82;;;8.90;99.90;;;;;;4993687;28;20092;-91
2021/12/24 09:40:04;;;;;;;27.70;8.18;;;8.90;99.90;;;;;;5009651;28;20085;-91
2021/12/24 09:42:31;;;;;;;24.25;7.65;;;8.90;99.90;;;;;;5010256;28;20038;-91
2021/12/24 09:44:58;;;;;;;27.20;8.55;;;8.90;99.90;;;;;;5009519;28;20046;-91
2021/12/24 09:47:24;;;;;;;23.98;7.95;;;9.00;99.90;;;;;;5009772;28;20045;-91
2021/12/24 09:49:51;;;;;;;20.45;6.85;;;9.00;99.90;;;;;;5009408;28;20084;-91
2021/12/24 09:52:18;;;;;;;26.33;8.68;;;9.00;99.90;;;;;;5009454;28;20134;-91
2021/12/24 09:54:45;;;;;;;24.63;7.55;;;9.00;99.90;;;;;;5009145;28;20042;-91
2021/12/24 09:57:11;;;;;;;20.38;6.50;;;9.00;99.90;;;;;;4993729;28;20069;-91
2021/12/24 09:59:37;;;;;;;17.80;6.72;;;9.00;99.90;;;;;;5011118;28;20042;-91
2021/12/24 10:02:04;;;;;;;19.10;6.55;;;9.10;99.90;;;;;;5009649;28;20038;-92
2021/12/24 10:04:32;;;;;;;17.77;6.22;;;9.10;99.90;;;;;;5008772;28;20073;-92
2021/12/24 10:07:03;;;;;;;25.17;6.35;;;9.10;99.90;;;;;;5009771;28;20427;-91
2021/12/24 10:09:35;;;;;;;19.75;6.53;;;9.10;99.90;;;;;;5009193;28;20042;-91
2021/12/24 10:12:08;;;;;;;19.83;6.27;;;9.10;99.90;;;;;;5009213;28;20420;-91
2021/12/24 10:14:57;;;;;;;17.42;5.72;;;9.10;99.90;;;;;;5029749;28;20570;-92
2021/12/24 10:17:28;;;;;;;20.88;6.20;;;9.10;99.90;;;;;;4994993;28;20042;-92
2021/12/24 10:20:08;;;;;;;23.25;6.82;;;9.10;99.90;;;;;;5012649;28;20041;-92
2021/12/24 10:22:49;;;;;;;19.73;6.63;;;9.10;99.90;;;;;;4996264;28;20066;-92
2021/12/24 10:25:16;;;;;;;21.92;6.60;;;9.10;99.90;;;;;;4996470;28;20060;-91
2021/12/24 10:27:43;;;;;;;20.67;6.68;;;9.10;99.90;;;;;;4996368;28;20042;-91
2021/12/24 10:30:24;;;;;;;20.10;7.22;;;9.10;99.90;;;;;;4996621;28;20042;-92
2021/12/24 10:32:52;;;;;;;18.55;6.50;;;9.10;99.90;;;;;;5029279;28;20068;-91
2021/12/24 10:35:29;;;;;;;25.38;7.30;;;9.10;99.90;;;;;;5011617;28;20057;-92
2021/12/24 10:38:17;;;;;;;17.23;5.82;;;9.20;99.90;;;;;;5012310;28;20037;-92
2021/12/24 10:40:50;;;;;;;23.55;7.15;;;9.20;99.90;;;;;;4996096;28;20428;-91
2021/12/24 10:43:30;;;;;;;21.63;6.50;;;9.20;99.90;;;;;;4995231;28;20034;-91
2021/12/24 10:46:14;;;;;;;21.20;6.53;;;9.20;99.90;;;;;;5012214;28;20156;-92
2021/12/24 10:49:02;;;;;;;14.82;5.30;;;9.20;99.90;;;;;;5010484;28;20053;-91
2021/12/24 10:54:11;;;;;;;20.30;6.43;;;9.20;99.90;;;;;;5013519;28;20503;-91
2021/12/24 10:56:37;;;;;;;20.45;6.90;;;9.20;99.90;;;;;;5012398;28;20044;-91
2021/12/24 10:59:05;;;;;;;17.65;7.05;;;9.20;99.90;;;;;;5010523;28;20080;-91
2021/12/24 11:01:31;;;;;;;16.98;6.82;;;9.20;99.90;;;;;;4994051;28;20034;-91
2021/12/24 11:03:57;;;;;;;20.27;8.25;;;9.20;99.90;;;;;;4994394;28;20064;-91
2021/12/24 11:06:29;;;;;;;23.58;7.78;;;9.20;99.90;;;;;;5011301;28;20494;-92
2021/12/24 11:08:55;;;;;;;19.13;6.80;;;9.20;99.90;;;;;;4995832;28;20042;-91
2021/12/24 11:11:21;;;;;;;22.27;7.60;;;9.20;99.90;;;;;;4996038;28;20157;-92
2021/12/24 11:13:48;;;;;;;22.25;8.27;;;9.20;99.90;;;;;;4995042;28;20756;-91
2021/12/24 11:16:19;;;;;;;22.55;7.95;;;9.20;99.90;;;;;;4995611;28;20042;-92
2021/12/24 11:19:06;;;;;;;20.70;8.40;;;9.20;99.90;;;;;;4995482;28;20455;-91
2021/12/24 11:21:32;;;;;;;20.63;7.80;;;9.20;99.90;;;;;;5011264;28;20056;-92
2021/12/24 11:23:58;;;;;;;23.17;7.55;;;9.20;99.90;;;;;;5010664;28;20118;-92
2021/12/24 11:26:28;;;;;;;20.35;8.40;;;9.20;99.90;;;;;;5011785;28;20132;-91
2021/12/24 11:28:54;;;;;;;19.02;7.63;;;9.20;99.90;;;;;;4995628;28;20116;-92
2021/12/24 11:31:23;;;;;;;23.10;7.85;;;9.20;99.90;;;;;;5011428;28;20368;-91
2021/12/24 11:33:51;;;;;;;24.13;8.07;;;9.20;99.90;;;;;;5011439;28;20502;-91
2021/12/24 11:36:19;;;;;;;23.20;8.00;;;9.20;99.90;;;;;;5011435;28;20050;-92
2021/12/24 11:38:51;;;;;;;21.63;8.25;;;9.20;99.90;;;;;;5012607;28;20109;-92
2021/12/24 11:41:18;;;;;;;19.52;7.40;;;9.20;99.90;;;;;;5011375;28;20038;-91
2021/12/24 11:43:47;;;;;;;20.20;7.82;;;9.10;99.90;;;;;;4994553;28;20065;-92
2021/12/24 11:46:17;;;;;;;22.75;8.07;;;9.10;99.90;;;;;;5011821;28;20044;-92
2021/12/24 11:48:44;;;;;;;19.98;8.50;;;9.10;99.90;;;;;;5011207;28;20495;-92
2021/12/24 11:51:16;;;;;;;19.55;7.70;;;9.10;99.90;;;;;;5011479;28;20044;-92
2021/12/24 11:53:43;;;;;;;18.30;6.20;;;9.20;99.90;;;;;;4994466;28;20077;-91
2021/12/24 11:56:12;;;;;;;22.77;7.97;;;9.20;99.90;;;;;;4994398;28;20050;-91
2021/12/24 11:58:46;;;;;;;18.77;6.60;;;9.20;99.90;;;;;;5009552;28;20458;-92
2021/12/24 12:01:15;;;;;;;18.65;5.63;;;9.20;99.90;;;;;;5011557;28;20041;-91
2021/12/24 12:03:46;;;;;;;3.63;1.30;;;9.30;99.90;;;;;;4989919;28;20049;-91
2021/12/24 12:06:34;;;;;;;3.10;1.35;;;9.10;99.90;;;;;;5008658;28;20068;-92
2021/12/24 12:09:06;;;;;;;2.90;1.10;;;8.90;99.90;;;;;;5011277;28;20068;-92
2021/12/24 12:11:34;;;;;;;2.63;1.30;;;8.80;99.90;;;;;;5010991;28;20045;-92
2021/12/24 12:14:21;;;;;;;3.03;1.30;;;8.70;99.90;;;;;;4994123;28;20495;-91
2021/12/24 12:16:54;;;;;;;3.25;1.23;;;8.60;99.90;;;;;;4994199;28;20042;-91
2021/12/24 12:19:57;;;;;;;5.13;2.30;;;8.50;99.90;;;;;;4994529;28;20034;-92
2021/12/24 12:25:09;;;;;;;6.88;2.47;;;8.40;99.90;;;;;;5010188;28;20046;-92
2021/12/24 12:27:44;;;;;;;7.13;3.17;;;8.40;99.90;;;;;;5009503;28;20458;-91
2021/12/24 12:30:25;;;;;;;5.60;2.17;;;8.30;99.90;;;;;;4994326;28;20049;-92
2021/12/24 12:33:12;;;;;;;3.58;1.48;;;8.40;99.90;;;;;;4993622;28;20037;-91
2021/12/24 12:35:48;;;;;;;4.85;1.60;;;8.40;99.90;;;;;;5006194;28;20058;-92
2021/12/24 12:38:33;;;;;;;4.65;1.70;;;8.40;99.90;;;;;;4991282;28;20034;-92
2021/12/24 12:41:19;;;;;;;4.38;1.70;;;8.30;99.90;;;;;;5008179;28;20042;-91
2021/12/24 12:43:46;;;;;;;4.30;1.80;;;8.30;99.90;;;;;;4991213;28;20045;-91
2021/12/24 12:46:34;;;;;;;4.38;1.92;;;8.30;99.90;;;;;;5007419;28;20034;-92
2021/12/24 12:49:09;;;;;;;6.47;2.22;;;8.30;99.90;;;;;;4993210;28;20045;-92
2021/12/24 12:51:55;;;;;;;5.82;2.10;;;8.40;99.90;;;;;;5009630;28;20046;-92
2021/12/24 12:54:42;;;;;;;5.10;2.10;;;8.40;99.90;;;;;;4992907;28;20041;-92
2021/12/24 12:57:19;;;;;;;4.88;2.03;;;8.40;99.90;;;;;;5010288;28;20092;-92
2021/12/24 13:00:12;;;;;;;7.38;2.60;;;8.40;99.90;;;;;;5010368;28;20118;-92
2021/12/24 13:02:56;;;;;;;5.07;2.10;;;8.40;99.90;;;;;;4994032;28;20073;-91
2021/12/24 13:05:27;;;;;;;4.57;2.03;;;8.40;99.90;;;;;;4989776;28;20050;-92
2021/12/24 13:07:59;;;;;;;5.72;2.53;;;8.40;99.90;;;;;;4989849;28;20046;-92
2021/12/24 13:10:25;;;;;;;7.95;2.35;;;8.50;99.90;;;;;;4974472;28;20046;-92
2021/12/24 13:13:00;;;;;;;5.50;2.60;;;8.50;99.90;;;;;;4974401;28;20042;-92
2021/12/24 13:15:25;;;;;;;6.85;3.00;;;8.50;99.90;;;;;;4974197;28;20054;-91
2021/12/24 13:17:51;;;;;;;6.05;3.10;;;8.50;99.90;;;;;;4989878;28;20046;-91
2021/12/24 13:22:26;;;;;;;7.22;2.50;;;8.40;99.90;;;;;;4974283;28;20065;-91
2021/12/24 13:23:21;;;;;;;9.13;3.40;;;8.40;99.90;;;;;;4989989;28;20042;-92
2021/12/24 13:25:47;;;;;;;6.57;2.80;;;8.40;99.90;;;;;;4990794;28;20038;-91
2021/12/24 13:28:13;;;;;;;8.13;2.88;;;8.40;99.90;;;;;;4980741;28;20450;-92
2021/12/24 13:30:39;;;;;;;7.75;2.80;;;8.40;99.90;;;;;;4993396;28;20048;-92
2021/12/24 13:33:07;;;;;;;7.22;3.10;;;8.40;99.90;;;;;;5007992;28;20045;-92
2021/12/24 13:35:48;;;;;;;5.88;2.80;;;8.30;99.90;;;;;;5009861;28;20622;-91
2021/12/24 13:38:26;;;;;;;6.53;3.40;;;8.40;99.90;;;;;;5009758;28;20045;-92
2021/12/24 13:40:53;;;;;;;6.07;3.08;;;8.30;99.90;;;;;;4993387;28;20116;-92
2021/12/24 13:43:19;;;;;;;5.78;2.60;;;8.30;99.90;;;;;;4990248;28;20491;-92
2021/12/24 13:45:49;;;;;;;6.25;2.95;;;8.30;99.90;;;;;;4993205;28;20511;-91
2021/12/24 13:48:22;;;;;;;4.88;2.45;;;8.30;99.90;;;;;;5001378;28;20069;-91
2021/12/24 13:56:37;;;;;;;6.10;2.30;;;8.20;99.90;;;;;;5034286;28;20066;-91
2021/12/24 13:59:03;;;;;;;6.43;2.80;;;8.20;99.90;;;;;;5015681;28;20065;-92
2021/12/24 14:01:32;;;;;;;6.00;3.00;;;8.20;99.90;;;;;;5032622;28;20140;-91
2021/12/24 14:03:59;;;;;;;5.97;2.70;;;8.10;99.90;;;;;;5012947;28;20117;-92
2021/12/24 14:06:33;;;;;;;5.97;2.80;;;8.10;99.90;;;;;;5008402;28;20042;-92
2021/12/24 14:09:08;;;;;;;4.57;2.20;;;8.10;99.90;;;;;;4984333;28;20045;-92
2021/12/24 14:11:36;;;;;;;5.70;2.40;;;8.10;99.90;;;;;;5013584;28;20499;-91
2021/12/24 14:14:07;;;;;;;5.43;2.22;;;8.10;99.90;;;;;;5012393;28;20077;-91
2021/12/24 14:19:18;;;;;;;7.70;3.53;;;8.10;99.90;;;;;;5012906;28;20045;-92
2021/12/24 14:21:46;;;;;;;9.50;4.10;;;8.00;99.90;;;;;;4995453;28;20121;-92
2021/12/24 14:24:18;;;;;;;8.77;4.20;;;8.00;99.90;;;;;;4996229;28;20538;-91
2021/12/24 14:26:53;;;;;;;12.40;6.60;;;8.00;99.90;;;;;;5012736;28;20096;-91
2021/12/24 14:29:38;;;;;;;6.43;2.88;;;8.00;99.90;;;;;;5013180;28;20087;-91
2021/12/24 14:32:09;;;;;;;6.43;2.65;;;8.00;99.90;;;;;;5014827;28;20096;-91
2021/12/24 14:34:39;;;;;;;6.47;2.45;;;8.00;99.90;;;;;;5012009;28;20048;-91
2021/12/24 14:37:09;;;;;;;5.90;2.20;;;8.00;99.90;;;;;;5013534;28;20530;-91
2021/12/24 14:39:48;;;;;;;6.13;2.28;;;8.00;99.90;;;;;;5014134;28;20574;-91
2021/12/24 14:42:16;;;;;;;9.00;4.50;;;8.00;99.90;;;;;;5012355;28;20045;-91